createdAt,value
2022-10-01T00:03:02.516Z,13.06
2022-10-01T00:06:06.172Z,13.05
2022-10-01T00:08:58.881Z,13.05
2022-10-01T00:11:56.909Z,13.12
2022-10-01T00:14:48.996Z,13.14
2022-10-01T00:17:42.211Z,13.20
2022-10-01T00:20:34.275Z,13.28
2022-10-01T00:23:30.394Z,13.25
2022-10-01T00:26:27.385Z,13.19
2022-10-01T00:29:15.241Z,13.18
2022-10-01T00:32:07.631Z,13.16
2022-10-01T00:35:00.483Z,13.13
2022-10-01T00:37:53.502Z,13.15
2022-10-01T00:40:48.975Z,13.17
2022-10-01T00:43:46.546Z,13.19
2022-10-01T00:46:42.684Z,13.16
2022-10-01T00:49:38.283Z,13.18
2022-10-01T00:52:34.663Z,13.18
2022-10-01T00:55:31.772Z,13.11
2022-10-01T00:58:28.498Z,13.07
2022-10-01T01:01:24.408Z,13.09
2022-10-01T01:04:22.804Z,13.14
2022-10-01T01:07:21.602Z,13.16
2022-10-01T01:10:17.141Z,13.13
2022-10-01T01:13:19.159Z,13.15
2022-10-01T01:16:18.872Z,13.16
2022-10-01T01:19:21.860Z,13.20
2022-10-01T01:22:15.470Z,13.27
2022-10-01T01:25:17.821Z,13.35
2022-10-01T01:28:21.866Z,13.38
2022-10-01T01:31:23.135Z,13.35
2022-10-01T01:34:14.392Z,13.33
2022-10-01T01:37:12.099Z,13.31
2022-10-01T01:40:10.304Z,13.31
2022-10-01T01:43:05.714Z,13.37
2022-10-01T01:46:01.340Z,13.44
2022-10-01T01:48:57.799Z,13.50
2022-10-01T01:51:54.880Z,13.53
2022-10-01T01:54:49.907Z,13.48
2022-10-01T01:57:45.553Z,13.47
2022-10-01T02:00:37.736Z,13.46
2022-10-01T02:03:31.065Z,13.44
2022-10-01T02:06:32.075Z,13.45
2022-10-01T02:09:30.581Z,13.43
2022-10-01T02:12:24.083Z,13.47
2022-10-01T02:15:26.135Z,13.44
2022-10-01T02:18:30.432Z,13.40
2022-10-01T02:21:27.113Z,13.35
2022-10-01T02:24:27.714Z,13.27
2022-10-01T02:27:34.988Z,13.20
2022-10-01T02:30:28.882Z,13.11
2022-10-01T02:33:26.152Z,13.08
2022-10-01T02:36:22.686Z,13.12
2022-10-01T02:39:16.761Z,13.16
2022-10-01T02:42:11.436Z,13.22
2022-10-01T02:45:07.599Z,13.34
2022-10-01T02:48:03.234Z,13.44
2022-10-01T02:51:03.438Z,13.53
2022-10-01T02:54:02.561Z,13.59
2022-10-01T02:57:12.453Z,13.60
2022-10-01T03:00:09.924Z,13.55
2022-10-01T03:03:02.252Z,13.44
2022-10-01T03:05:54.424Z,13.38
2022-10-01T03:08:46.626Z,13.38
2022-10-01T03:11:38.669Z,13.44
2022-10-01T03:14:32.415Z,13.48
2022-10-01T03:17:24.399Z,13.48
2022-10-01T03:20:16.817Z,13.48
2022-10-01T03:23:01.716Z,13.46
2022-10-01T03:25:53.861Z,13.45
2022-10-01T03:28:48.536Z,13.35
2022-10-01T03:31:42.626Z,13.27
2022-10-01T03:34:34.953Z,13.27
2022-10-01T03:37:29.974Z,13.24
2022-10-01T03:40:22.153Z,13.23
2022-10-01T03:43:14.389Z,13.24
2022-10-01T03:46:06.839Z,13.30
2022-10-01T03:48:59.755Z,13.33
2022-10-01T03:51:52.078Z,13.36
2022-10-01T03:54:44.362Z,13.31
2022-10-01T03:57:38.685Z,13.29
2022-10-01T04:00:31.002Z,13.27
2022-10-01T04:03:25.134Z,13.23
2022-10-01T04:06:18.150Z,13.21
2022-10-01T04:09:11.177Z,13.23
2022-10-01T04:12:05.866Z,13.27
2022-10-01T04:14:59.355Z,13.28
2022-10-01T04:17:51.798Z,13.25
2022-10-01T04:20:44.569Z,13.28
2022-10-01T04:23:39.940Z,13.25
2022-10-01T04:26:32.171Z,13.21
2022-10-01T04:29:15.811Z,13.20
2022-10-01T04:32:08.090Z,13.19
2022-10-01T04:35:04.590Z,13.17
2022-10-01T04:38:01.671Z,13.21
2022-10-01T04:40:53.975Z,13.24
2022-10-01T04:43:48.891Z,13.31
2022-10-01T04:46:41.310Z,13.35
2022-10-01T04:49:34.639Z,13.32
2022-10-01T04:52:26.793Z,13.27
2022-10-01T04:55:21.458Z,13.25
2022-10-01T04:58:13.506Z,13.26
2022-10-01T05:01:05.580Z,13.29
2022-10-01T05:03:57.657Z,13.37
2022-10-01T05:06:49.633Z,13.46
2022-10-01T05:09:41.800Z,13.51
2022-10-01T05:12:34.294Z,13.42
2022-10-01T05:15:26.256Z,13.23
2022-10-01T05:18:18.328Z,13.19
2022-10-01T05:21:11.742Z,13.20
2022-10-01T05:23:54.332Z,13.23
2022-10-01T05:26:46.353Z,13.28
2022-10-01T05:29:38.425Z,13.38
2022-10-01T05:32:19.415Z,13.49
2022-10-01T05:35:01.401Z,13.58
2022-10-01T05:37:57.056Z,13.57
2022-10-01T05:40:49.294Z,13.54
2022-10-01T05:43:31.557Z,13.56
2022-10-01T05:46:23.554Z,13.48
2022-10-01T05:48:58.801Z,13.39
2022-10-01T05:51:50.863Z,13.36
2022-10-01T05:54:32.633Z,13.34
2022-10-01T05:57:13.793Z,13.33
2022-10-01T05:59:58.485Z,13.38
2022-10-01T06:02:38.874Z,13.43
2022-10-01T06:05:32.909Z,13.52
2022-10-01T06:08:15.040Z,13.60
2022-10-01T06:11:07.185Z,13.60
2022-10-01T06:14:00.522Z,13.60
2022-10-01T06:16:55.664Z,13.55
2022-10-01T06:19:47.670Z,13.58
2022-10-01T06:22:28.654Z,13.63
2022-10-01T06:25:07.030Z,13.67
2022-10-01T06:27:39.259Z,13.72
2022-10-01T06:30:33.511Z,13.82
2022-10-01T06:33:17.739Z,13.90
2022-10-01T06:35:59.510Z,13.95
2022-10-01T06:38:52.063Z,14.06
2022-10-01T06:41:36.583Z,14.18
2022-10-01T06:44:28.810Z,14.26
2022-10-01T06:47:20.774Z,14.33
2022-10-01T06:50:02.670Z,14.41
2022-10-01T06:52:52.470Z,14.54
2022-10-01T06:55:44.849Z,14.68
2022-10-01T06:58:18.787Z,14.87
2022-10-01T07:01:11.207Z,15.13
2022-10-01T07:03:54.617Z,15.38
2022-10-01T07:06:46.576Z,15.52
2022-10-01T07:09:18.330Z,15.60
2022-10-01T07:11:50.050Z,15.64
2022-10-01T07:14:25.042Z,15.65
2022-10-01T07:17:17.345Z,15.68
2022-10-01T07:20:01.775Z,15.75
2022-10-01T07:22:33.751Z,15.82
2022-10-01T07:25:06.187Z,15.94
2022-10-01T07:27:38.545Z,16.08
2022-10-01T07:30:31.077Z,16.26
2022-10-01T07:33:02.919Z,16.39
2022-10-01T07:35:55.014Z,16.56
2022-10-01T07:38:51.245Z,16.76
2022-10-01T07:41:34.443Z,16.85
2022-10-01T07:44:29.682Z,16.84
2022-10-01T07:47:22.252Z,16.93
2022-10-01T07:50:15.689Z,17.02
2022-10-01T07:53:07.853Z,17.15
2022-10-01T07:56:03.235Z,17.29
2022-10-01T07:58:58.855Z,17.45
2022-10-01T08:01:52.775Z,17.65
2022-10-01T08:04:42.429Z,17.84
2022-10-01T08:07:15.447Z,17.95
2022-10-01T08:09:47.321Z,17.92
2022-10-01T08:12:30.493Z,17.85
2022-10-01T08:15:23.026Z,17.74
2022-10-01T08:18:05.511Z,17.79
2022-10-01T08:20:57.989Z,17.90
2022-10-01T08:23:50.021Z,18.05
2022-10-01T08:26:42.084Z,18.13
2022-10-01T08:29:35.139Z,18.19
2022-10-01T08:32:28.228Z,18.34
2022-10-01T08:35:20.227Z,18.54
2022-10-01T08:37:52.104Z,18.59
2022-10-01T08:40:38.216Z,18.75
2022-10-01T08:43:36.465Z,18.95
2022-10-01T08:46:35.139Z,19.18
2022-10-01T08:49:33.225Z,19.31
2022-10-01T08:52:27.309Z,19.34
2022-10-01T08:55:05.458Z,19.38
2022-10-01T08:57:42.081Z,19.44
2022-10-01T09:00:18.049Z,19.44
2022-10-01T09:03:13.295Z,19.41
2022-10-01T09:05:56.331Z,19.50
2022-10-01T09:08:48.427Z,19.66
2022-10-01T09:11:46.860Z,19.83
2022-10-01T09:14:34.788Z,19.93
2022-10-01T09:17:20.490Z,20.01
2022-10-01T09:20:19.570Z,20.02
2022-10-01T09:23:27.105Z,20.02
2022-10-01T09:26:02.572Z,20.03
2022-10-01T09:28:36.196Z,19.90
2022-10-01T09:31:33.090Z,19.72
2022-10-01T09:34:12.263Z,19.59
2022-10-01T09:37:15.005Z,19.41
2022-10-01T09:40:17.447Z,19.24
2022-10-01T09:43:00.830Z,19.15
2022-10-01T09:45:53.920Z,19.10
2022-10-01T09:48:50.699Z,19.22
2022-10-01T09:51:47.579Z,19.45
2022-10-01T09:54:35.470Z,19.65
2022-10-01T09:57:12.320Z,19.93
2022-10-01T10:00:03.143Z,20.16
2022-10-01T10:02:49.110Z,20.38
2022-10-01T10:05:43.590Z,20.32
2022-10-01T10:08:40.191Z,20.34
2022-10-01T10:11:24.921Z,20.38
2022-10-01T10:14:23.358Z,20.37
2022-10-01T10:17:13.374Z,20.45
2022-10-01T10:19:56.803Z,20.37
2022-10-01T10:22:38.813Z,20.35
2022-10-01T10:25:31.016Z,20.29
2022-10-01T10:28:24.290Z,20.29
2022-10-01T10:31:16.077Z,20.29
2022-10-01T10:34:17.542Z,20.29
2022-10-01T10:37:17.322Z,20.38
2022-10-01T10:40:18.200Z,20.46
2022-10-01T10:43:01.979Z,20.49
2022-10-01T10:45:57.439Z,20.52
2022-10-01T10:48:44.552Z,20.53
2022-10-01T10:51:28.365Z,20.41
2022-10-01T10:54:26.897Z,20.13
2022-10-01T10:57:28.036Z,19.87
2022-10-01T11:03:33.013Z,19.35
2022-10-01T11:06:25.559Z,19.22
2022-10-01T11:09:21.022Z,19.14
2022-10-01T11:12:23.300Z,19.06
2022-10-01T11:15:30.161Z,19.07
2022-10-01T11:18:44.219Z,19.04
2022-10-01T11:21:52.029Z,18.99
2022-10-01T11:25:15.750Z,18.98
2022-10-01T11:28:20.914Z,18.97
2022-10-01T11:31:23.863Z,18.94
2022-10-01T11:34:41.946Z,18.93
2022-10-01T11:37:41.617Z,18.97
2022-10-01T11:40:42.171Z,19.00
2022-10-01T11:43:38.981Z,19.05
2022-10-01T11:46:33.991Z,18.98
2022-10-01T11:49:46.041Z,18.88
2022-10-01T11:52:45.170Z,18.78
2022-10-01T11:55:59.542Z,18.69
2022-10-01T11:59:00.255Z,18.54
2022-10-01T12:01:59.774Z,18.35
2022-10-01T12:04:58.267Z,18.18
2022-10-01T12:07:57.772Z,18.13
2022-10-01T12:10:56.361Z,18.13
2022-10-01T12:13:35.573Z,18.13
2022-10-01T12:16:29.006Z,18.16
2022-10-01T12:19:26.314Z,18.16
2022-10-01T12:22:25.714Z,18.16
2022-10-01T12:25:15.171Z,18.12
2022-10-01T12:28:13.813Z,17.96
2022-10-01T12:31:15.673Z,17.84
2022-10-01T12:34:19.042Z,17.77
2022-10-01T12:37:22.904Z,17.72
2022-10-01T12:40:28.113Z,17.69
2022-10-01T12:43:44.606Z,17.64
2022-10-01T12:46:42.452Z,17.57
2022-10-01T12:49:38.338Z,17.53
2022-10-01T12:52:40.647Z,17.47
2022-10-01T12:55:49.740Z,17.44
2022-10-01T12:58:49.819Z,17.43
2022-10-01T13:01:52.781Z,17.41
2022-10-01T13:05:13.755Z,17.39
2022-10-01T13:08:22.977Z,17.40
2022-10-01T13:11:28.289Z,17.42
2022-10-01T13:14:22.747Z,17.43
2022-10-01T13:17:23.704Z,17.47
2022-10-01T13:20:23.431Z,17.55
2022-10-01T13:23:16.697Z,17.59
2022-10-01T13:26:17.527Z,17.56
2022-10-01T13:29:27.258Z,17.47
2022-10-01T13:32:34.367Z,17.40
2022-10-01T13:35:35.255Z,17.39
2022-10-01T13:38:29.163Z,17.39
2022-10-01T13:41:25.328Z,17.34
2022-10-01T13:44:26.789Z,17.29
2022-10-01T13:47:22.940Z,17.23
2022-10-01T13:50:25.112Z,17.22
2022-10-01T13:53:21.743Z,17.23
2022-10-01T13:56:16.353Z,17.19
2022-10-01T13:59:31.672Z,17.06
2022-10-01T14:02:32.152Z,16.92
2022-10-01T14:05:30.349Z,16.76
2022-10-01T14:08:30.560Z,16.62
2022-10-01T14:11:44.678Z,16.49
2022-10-01T14:14:50.735Z,16.43
2022-10-01T14:17:45.133Z,16.41
2022-10-01T14:20:33.848Z,16.38
2022-10-01T14:23:12.845Z,16.37
2022-10-01T14:26:15.401Z,16.36
2022-10-01T14:29:20.476Z,16.35
2022-10-01T14:32:24.584Z,16.35
2022-10-01T14:35:29.692Z,16.36
2022-10-01T14:38:23.223Z,16.38
2022-10-01T14:41:24.893Z,16.41
2022-10-01T14:44:25.186Z,16.43
2022-10-01T14:47:21.862Z,16.41
2022-10-01T14:50:20.766Z,16.38
2022-10-01T14:53:18.963Z,16.40
2022-10-01T14:56:15.467Z,16.41
2022-10-01T14:59:24.808Z,16.39
2022-10-01T15:02:22.580Z,16.36
2022-10-01T15:05:24.089Z,16.39
2022-10-01T15:08:19.936Z,16.38
2022-10-01T15:11:17.530Z,16.35
2022-10-01T15:14:16.323Z,16.33
2022-10-01T15:17:08.921Z,16.32
2022-10-01T15:20:01.645Z,16.27
2022-10-01T15:23:01.067Z,16.24
2022-10-01T15:25:46.496Z,16.22
2022-10-01T15:28:32.015Z,16.19
2022-10-01T15:31:24.520Z,16.16
2022-10-01T15:34:19.194Z,16.14
2022-10-01T15:37:03.040Z,16.08
2022-10-01T15:39:55.738Z,16.02
2022-10-01T15:43:12.041Z,16.00
2022-10-01T15:46:19.113Z,16.03
2022-10-01T15:49:18.686Z,16.05
2022-10-01T15:52:19.618Z,16.08
2022-10-01T15:55:16.515Z,16.14
2022-10-01T15:58:08.103Z,16.19
2022-10-01T16:01:05.071Z,16.23
2022-10-01T16:04:05.782Z,16.27
2022-10-01T16:06:41.871Z,16.29
2022-10-01T16:09:34.575Z,16.30
2022-10-01T16:12:29.722Z,16.29
2022-10-01T16:15:28.811Z,16.24
2022-10-01T16:18:25.178Z,16.19
2022-10-01T16:21:17.514Z,16.20
2022-10-01T16:24:29.326Z,16.25
2022-10-01T16:27:23.839Z,16.26
2022-10-01T16:30:23.081Z,16.24
2022-10-01T16:33:15.413Z,16.22
2022-10-01T16:36:19.874Z,16.16
2022-10-01T16:39:13.822Z,16.13
2022-10-01T16:42:23.316Z,16.14
2022-10-01T16:45:14.618Z,16.15
2022-10-01T16:48:14.157Z,16.18
2022-10-01T16:51:06.369Z,16.21
2022-10-01T16:53:52.259Z,16.19
2022-10-01T16:56:27.987Z,16.13
2022-10-01T16:59:22.662Z,16.10
2022-10-01T17:02:00.971Z,16.13
2022-10-01T17:04:53.198Z,16.20
2022-10-01T17:07:25.074Z,16.27
2022-10-01T17:10:08.621Z,16.33
2022-10-01T17:13:02.112Z,16.42
2022-10-01T17:15:54.658Z,16.50
2022-10-01T17:18:45.846Z,16.43
2022-10-01T17:21:38.418Z,16.28
2022-10-01T17:24:23.832Z,16.11
2022-10-01T17:27:15.885Z,15.96
2022-10-01T17:30:09.444Z,15.85
2022-10-01T17:33:02.479Z,15.77
2022-10-01T17:35:55.933Z,15.70
2022-10-01T17:38:41.698Z,15.64
2022-10-01T17:41:34.324Z,15.55
2022-10-01T17:44:16.419Z,15.51
2022-10-01T17:47:09.089Z,15.46
2022-10-01T17:50:01.278Z,15.39
2022-10-01T17:52:35.489Z,15.30
2022-10-01T17:55:23.717Z,15.25
2022-10-01T17:58:15.745Z,15.22
2022-10-01T18:00:50.010Z,15.22
2022-10-01T18:03:43.381Z,15.21
2022-10-01T18:06:35.736Z,15.19
2022-10-01T18:09:28.009Z,15.21
2022-10-01T18:12:20.071Z,15.18
2022-10-01T18:15:14.836Z,15.18
2022-10-01T18:21:18.902Z,15.15
2022-10-01T18:24:11.132Z,15.07
2022-10-01T18:27:03.238Z,15.03
2022-10-01T18:29:55.250Z,14.95
2022-10-01T18:32:43.363Z,14.90
2022-10-01T18:35:36.795Z,14.87
2022-10-01T18:38:32.244Z,14.89
2022-10-01T18:41:34.500Z,14.89
2022-10-01T18:44:09.528Z,14.92
2022-10-01T18:47:15.479Z,14.94
2022-10-01T18:50:17.187Z,14.90
2022-10-01T18:53:28.333Z,14.81
2022-10-01T18:56:29.461Z,14.72
2022-10-01T18:59:26.396Z,14.66
2022-10-01T19:02:23.048Z,14.65
2022-10-01T19:05:31.476Z,14.60
2022-10-01T19:08:13.537Z,14.56
2022-10-01T19:11:17.844Z,14.55
2022-10-01T19:14:30.474Z,14.57
2022-10-01T19:17:46.513Z,14.53
2022-10-01T19:20:52.347Z,14.51
2022-10-01T19:24:05.226Z,14.42
2022-10-01T19:27:05.609Z,14.37
2022-10-01T19:30:10.796Z,14.32
2022-10-01T19:33:06.214Z,14.28
2022-10-01T19:35:53.299Z,14.26
2022-10-01T19:38:33.703Z,14.26
2022-10-01T19:41:24.391Z,14.23
2022-10-01T19:44:20.479Z,14.14
2022-10-01T19:47:30.250Z,14.09
2022-10-01T19:50:22.764Z,14.09
2022-10-01T19:53:22.895Z,14.09
2022-10-01T19:56:19.395Z,14.07
2022-10-01T19:59:14.646Z,14.04
2022-10-01T20:02:15.204Z,14.04
2022-10-01T20:05:11.249Z,14.03
2022-10-01T20:08:04.833Z,13.96
2022-10-01T20:10:49.679Z,13.95
2022-10-01T20:14:07.188Z,13.97
2022-10-01T20:16:58.012Z,13.99
2022-10-01T20:19:59.762Z,13.98
2022-10-01T20:23:01.094Z,13.97
2022-10-01T20:26:03.816Z,13.94
2022-10-01T20:29:13.516Z,13.92
2022-10-01T20:32:10.539Z,13.93
2022-10-01T20:34:52.304Z,13.95
2022-10-01T20:37:56.767Z,13.93
2022-10-01T20:40:30.964Z,13.92
2022-10-01T20:43:32.065Z,13.92
2022-10-01T20:46:32.725Z,13.91
2022-10-01T20:49:31.373Z,13.90
2022-10-01T20:52:34.304Z,13.88
2022-10-01T20:55:13.321Z,13.84
2022-10-01T20:58:10.993Z,13.81
2022-10-01T21:00:45.870Z,13.79
2022-10-01T21:03:41.807Z,13.77
2022-10-01T21:06:16.691Z,13.75
2022-10-01T21:09:09.105Z,13.78
2022-10-01T21:11:57.684Z,13.80
2022-10-01T21:14:46.821Z,13.78
2022-10-01T21:17:47.403Z,13.76
2022-10-01T21:20:45.170Z,13.75
2022-10-01T21:23:57.870Z,13.78
2022-10-01T21:27:00.427Z,13.75
2022-10-01T21:30:06.026Z,13.76
2022-10-01T21:33:15.555Z,13.74
2022-10-01T21:36:19.464Z,13.67
2022-10-01T21:39:19.421Z,13.61
2022-10-01T21:42:17.843Z,13.54
2022-10-01T21:45:23.933Z,13.47
2022-10-01T21:48:28.352Z,13.44
2022-10-01T21:51:22.945Z,13.44
2022-10-01T21:54:46.010Z,13.45
2022-10-01T21:58:03.283Z,13.42
2022-10-01T22:01:08.266Z,13.42
2022-10-01T22:04:07.420Z,13.41
2022-10-01T22:07:06.182Z,13.37
2022-10-01T22:10:09.367Z,13.31
2022-10-01T22:13:07.580Z,13.18
2022-10-01T22:16:03.291Z,12.99
2022-10-01T22:18:58.846Z,12.79
2022-10-01T22:21:38.388Z,12.62
2022-10-01T22:24:34.670Z,12.47
2022-10-01T22:27:33.244Z,12.36
2022-10-01T22:30:28.925Z,12.26
2022-10-01T22:33:18.342Z,12.19
2022-10-01T22:36:15.680Z,12.11
2022-10-01T22:39:13.713Z,11.97
2022-10-01T22:42:11.918Z,11.85
2022-10-01T22:45:10.521Z,11.73
2022-10-01T22:48:17.972Z,11.58
2022-10-01T22:51:26.610Z,11.39
2022-10-01T22:54:31.311Z,11.30
2022-10-01T22:57:39.807Z,11.24
2022-10-01T23:00:38.449Z,11.14
2022-10-01T23:03:50.575Z,11.02
2022-10-01T23:06:49.864Z,10.90
2022-10-01T23:09:51.539Z,10.78
2022-10-01T23:12:35.524Z,10.67
2022-10-01T23:15:36.048Z,10.59
2022-10-01T23:18:42.600Z,10.53
2022-10-01T23:21:36.254Z,10.51
2022-10-01T23:24:43.401Z,10.45
2022-10-01T23:27:33.531Z,10.41
2022-10-01T23:30:25.744Z,10.38
2022-10-01T23:33:35.082Z,10.32
2022-10-01T23:36:43.528Z,10.31
2022-10-01T23:39:41.750Z,10.31
2022-10-01T23:42:40.680Z,10.30
2022-10-01T23:45:39.511Z,10.31
2022-10-01T23:48:38.953Z,10.35
2022-10-01T23:51:37.287Z,10.37
2022-10-01T23:54:37.238Z,10.36
2022-10-01T23:57:32.990Z,10.37
